Main page
METAR-TAF:

METAR-TAF

Airports :

Luton Airport

Luton, England

latitude: 51-52N, longitude: 000-22W, elevation: 160 m

Current weather observation

The report was made 24 minutes ago, at 20:20 UTC
Wind 3 kt from the South/Southeast
Temperature 12°C
Humidity 94%
Pressure 1008 hPa
Visibility 10 km or more

METAR: EGGW 252020Z AUTO 16003KT 9999 NCD 12/11 Q1008

Time: 21:44 (20:44 UTC)

Forecast

The report was made 42 minutes ago, at 20:02 UTC
Forecast valid from 25 at 20 UTC to 26 at 18 UTC
Wind 8 kt from the South
Visibility 10 km or more
Scattered clouds at a height of 4000 ft
Probability 30% :
Temporary
from 25 at 20 UTC to 25 at 22 UTC
Wind 15 kt from the South/Southwest with gusts up to 25 kt
Visibility: 6000 m
rain showers
Probability 30% :
Temporary
from 26 at 10 UTC to 26 at 17 UTC
Wind 15 kt from the South/Southwest with gusts up to 25 kt

TAF: EGGW 252002Z 2520/2618 19008KT 9999 SCT040 PROB30 TEMPO 2520/2522 20015G25KT 6000 SHRA PROB30 TEMPO 2610/2617 20015G25KT

Weather observations and forecasts of more than 4000 airports (METAR and TAF reports).

The available stations are represented by yellow and red dots on the map.

Hover mouse over dot to see the name of the station.

Then click to see weather observations and forecasts.

To change the map : click on the green buttons with a black cross to zoom in, on the green button with a dash to zoom out, or on the green arrows for adjacent maps.


METAR-TAF: